Time;durP1;ratioP1;P1;durP2;ratioP2;P2;SDS_P1;SDS_P2;PMS_P1;PMS_P2;Temp;Humidity;BMP_temperature;BMP_pressure;BME280_temperature;BME280_humidity;BME280_pressure;Samples;Min_cycle;Max_cycle;Signal;HPM_P1;HPM_P2
2022/08/13 00:02:03;;;;;;;1.15;0.55;;;23.60;87.80;;;;;;5080137;28;20211;-59
2022/08/13 00:04:30;;;;;;;0.47;0.47;;;23.50;87.90;;;;;;5073666;28;20355;-59
2022/08/13 00:07:08;;;;;;;0.40;0.40;;;23.50;88.30;;;;;;5074452;28;20226;-59
2022/08/13 00:09:37;;;;;;;0.50;0.50;;;23.40;89.10;;;;;;5063329;28;20198;-59
2022/08/13 00:14:50;;;;;;;0.50;0.50;;;23.20;89.00;;;;;;5056054;28;20229;-59
2022/08/13 00:17:20;;;;;;;0.60;0.60;;;23.20;89.80;;;;;;5065627;28;20597;-59
2022/08/13 00:19:49;;;;;;;0.75;0.75;;;23.20;90.20;;;;;;5055650;28;20239;-65
2022/08/13 00:22:25;;;;;;;0.55;0.55;;;23.20;90.00;;;;;;5058279;28;20192;-59
2022/08/13 00:24:52;;;;;;;0.70;0.70;;;23.10;90.00;;;;;;5056497;28;20246;-59
2022/08/13 00:27:22;;;;;;;1.33;0.70;;;23.10;90.20;;;;;;5054438;28;20291;-59
2022/08/13 00:29:50;;;;;;;0.52;0.52;;;23.10;90.20;;;;;;5055578;28;20234;-59
2022/08/13 00:32:21;;;;;;;0.52;0.52;;;23.00;90.30;;;;;;5057192;28;20235;-59
2022/08/13 00:34:49;;;;;;;6.15;0.80;;;23.00;90.50;;;;;;5057825;28;20254;-59
2022/08/13 00:37:16;;;;;;;1.38;0.60;;;23.00;90.20;;;;;;5065854;28;20214;-59
2022/08/13 00:39:43;;;;;;;0.40;0.40;;;23.10;90.80;;;;;;5056305;28;20741;-60
2022/08/13 00:42:10;;;;;;;0.50;0.50;;;23.10;90.40;;;;;;5058330;28;20303;-59
2022/08/13 00:44:39;;;;;;;0.68;0.68;;;23.10;90.60;;;;;;5059071;28;20251;-59
2022/08/13 00:49:52;;;;;;;0.70;0.70;;;23.10;90.50;;;;;;5067704;28;20665;-59
2022/08/13 00:52:19;;;;;;;0.43;0.43;;;23.10;90.60;;;;;;5059578;28;20600;-60
2022/08/13 00:54:48;;;;;;;0.40;0.40;;;23.10;90.60;;;;;;5064460;28;20223;-59
2022/08/13 00:57:15;;;;;;;0.65;0.60;;;23.10;90.40;;;;;;5064843;28;20227;-58
2022/08/13 00:59:44;;;;;;;0.52;0.52;;;23.10;90.40;;;;;;5065678;28;20905;-58
2022/08/13 01:02:13;;;;;;;0.52;0.52;;;23.20;90.90;;;;;;5065217;28;20203;-60
2022/08/13 01:04:42;;;;;;;0.60;0.60;;;23.10;90.80;;;;;;5064242;28;20273;-58
2022/08/13 01:07:11;;;;;;;0.47;0.47;;;23.10;91.00;;;;;;5065578;28;20305;-58
2022/08/13 01:09:38;;;;;;;0.73;0.70;;;23.20;90.80;;;;;;5057429;28;20235;-58
2022/08/13 01:12:14;;;;;;;0.40;0.40;;;23.10;90.90;;;;;;5061073;28;20207;-58
2022/08/13 01:14:43;;;;;;;0.50;0.50;;;23.10;91.30;;;;;;5059024;28;20243;-58
2022/08/13 01:17:13;;;;;;;0.63;0.63;;;23.20;91.80;;;;;;5067401;28;20394;-58
2022/08/13 01:19:44;;;;;;;0.35;0.35;;;23.20;91.70;;;;;;5065150;28;20345;-59
2022/08/13 01:22:13;;;;;;;0.80;0.80;;;23.20;91.10;;;;;;5065161;28;20295;-60
2022/08/13 01:24:41;;;;;;;0.50;0.50;;;23.10;91.20;;;;;;5061725;28;20220;-60
2022/08/13 01:27:09;;;;;;;0.45;0.45;;;23.10;90.90;;;;;;5060646;28;20207;-60
2022/08/13 01:29:37;;;;;;;0.50;0.50;;;23.10;90.90;;;;;;5067357;28;20250;-59
2022/08/13 01:32:05;;;;;;;0.28;0.28;;;23.00;91.00;;;;;;5050355;28;20291;-61
2022/08/13 01:34:33;;;;;;;0.50;0.50;;;23.00;91.00;;;;;;5060036;28;20220;-62
2022/08/13 01:37:00;;;;;;;0.50;0.50;;;23.00;91.10;;;;;;5063776;28;20211;-62
2022/08/13 01:39:29;;;;;;;0.50;0.50;;;23.00;91.10;;;;;;5061093;28;20287;-61
2022/08/13 01:41:56;;;;;;;0.50;0.50;;;23.00;90.90;;;;;;5066404;28;20725;-58
2022/08/13 01:44:25;;;;;;;0.50;0.50;;;23.00;91.10;;;;;;5056917;28;20311;-61
2022/08/13 01:52:34;;;;;;;1.10;0.45;;;23.10;90.80;;;;;;5059010;28;20223;-61
2022/08/13 01:55:05;;;;;;;0.50;0.50;;;23.10;90.90;;;;;;5063213;28;20599;-61
2022/08/13 01:57:33;;;;;;;0.65;0.43;;;23.10;91.20;;;;;;5061990;28;20192;-60
2022/08/13 02:00:00;;;;;;;0.47;0.47;;;23.00;91.10;;;;;;5062585;28;20261;-60
2022/08/13 02:02:28;;;;;;;0.40;0.40;;;23.00;91.00;;;;;;5062840;28;20204;-60
2022/08/13 02:04:55;;;;;;;0.30;0.30;;;22.90;91.10;;;;;;5063377;28;20230;-60
2022/08/13 02:07:23;;;;;;;0.45;0.45;;;22.80;91.10;;;;;;5062823;28;20298;-59
2022/08/13 02:09:51;;;;;;;0.40;0.40;;;22.80;91.10;;;;;;5052285;28;20257;-60
2022/08/13 02:12:19;;;;;;;0.60;0.60;;;22.80;91.20;;;;;;5062799;28;20234;-59
2022/08/13 02:14:46;;;;;;;0.60;0.60;;;22.70;91.20;;;;;;5062640;28;20660;-59
2022/08/13 02:17:25;;;;;;;0.80;0.80;;;22.60;91.30;;;;;;5063740;28;20203;-59
2022/08/13 02:19:54;;;;;;;0.85;0.43;;;22.60;91.40;;;;;;5063937;28;20195;-59
2022/08/13 02:22:23;;;;;;;0.40;0.40;;;22.50;91.50;;;;;;5062947;28;20213;-59
2022/08/13 02:24:52;;;;;;;0.65;0.65;;;22.40;91.50;;;;;;5061033;28;20227;-59
2022/08/13 02:27:22;;;;;;;0.40;0.40;;;22.40;91.80;;;;;;5063637;28;20664;-59
2022/08/13 02:29:51;;;;;;;0.40;0.40;;;22.40;91.80;;;;;;5059310;28;20200;-59
2022/08/13 02:32:19;;;;;;;0.75;0.75;;;22.30;92.20;;;;;;5060326;28;20222;-59
2022/08/13 02:34:49;;;;;;;0.52;0.52;;;22.20;92.40;;;;;;5060666;28;20678;-59
2022/08/13 02:37:16;;;;;;;0.80;0.60;;;22.10;92.50;;;;;;5065691;28;20294;-59
2022/08/13 02:39:43;;;;;;;0.45;0.45;;;21.90;92.40;;;;;;5058263;28;20214;-59
2022/08/13 02:42:09;;;;;;;0.65;0.65;;;21.70;92.60;;;;;;5063333;28;20205;-59
2022/08/13 02:44:39;;;;;;;0.40;0.40;;;21.50;92.70;;;;;;5059636;28;20310;-59
2022/08/13 02:47:06;;;;;;;0.45;0.43;;;21.40;93.10;;;;;;5062842;28;20214;-61
2022/08/13 02:49:36;;;;;;;0.60;0.60;;;21.20;93.30;;;;;;5061098;28;20200;-58
2022/08/13 02:52:04;;;;;;;1.08;0.60;;;21.00;93.40;;;;;;5053675;28;20684;-60
2022/08/13 02:54:32;;;;;;;0.68;0.68;;;20.80;93.70;;;;;;5049476;28;20224;-60
2022/08/13 02:56:59;;;;;;;1.10;0.60;;;20.70;93.80;;;;;;5065085;28;20204;-59
2022/08/13 02:59:27;;;;;;;0.57;0.57;;;20.60;94.00;;;;;;5060086;28;20204;-60
2022/08/13 03:01:56;;;;;;;0.55;0.55;;;20.40;94.10;;;;;;5060664;28;20222;-60
2022/08/13 03:04:23;;;;;;;0.63;0.63;;;20.40;94.40;;;;;;5067424;28;20223;-60
2022/08/13 03:06:51;;;;;;;0.60;0.60;;;20.30;94.60;;;;;;5059479;28;20294;-60
2022/08/13 03:09:20;;;;;;;0.70;0.70;;;20.10;94.80;;;;;;5059532;28;20203;-60
2022/08/13 03:11:47;;;;;;;0.50;0.50;;;20.10;95.00;;;;;;5065920;28;20282;-60
2022/08/13 03:14:15;;;;;;;0.82;0.50;;;20.00;95.50;;;;;;5059410;28;20229;-60
2022/08/13 03:16:42;;;;;;;0.40;0.40;;;20.00;95.30;;;;;;5066696;28;20641;-60
2022/08/13 03:19:11;;;;;;;1.20;0.50;;;19.90;95.40;;;;;;5059349;28;20792;-60
2022/08/13 03:21:41;;;;;;;0.60;0.60;;;19.80;95.60;;;;;;5067791;28;20234;-59
2022/08/13 03:24:09;;;;;;;0.45;0.45;;;19.80;95.90;;;;;;5054663;28;20222;-60
2022/08/13 03:26:38;;;;;;;0.40;0.40;;;19.70;95.90;;;;;;5062705;28;20291;-60
2022/08/13 03:29:05;;;;;;;0.40;0.40;;;19.60;96.20;;;;;;5073488;28;20613;-59
2022/08/13 03:31:32;;;;;;;0.50;0.50;;;19.50;96.40;;;;;;5062201;28;20207;-59
2022/08/13 03:33:59;;;;;;;0.45;0.45;;;19.40;96.60;;;;;;5062508;28;20689;-59
2022/08/13 03:36:29;;;;;;;0.40;0.40;;;19.40;97.40;;;;;;5070147;28;20204;-59
2022/08/13 03:38:57;;;;;;;0.50;0.50;;;19.40;97.50;;;;;;5063341;28;20219;-59
2022/08/13 03:41:24;;;;;;;0.50;0.50;;;19.40;97.40;;;;;;5063155;28;20207;-60
2022/08/13 03:43:51;;;;;;;0.47;0.47;;;19.30;97.90;;;;;;5070178;28;20740;-59
2022/08/13 03:46:20;;;;;;;0.40;0.40;;;19.30;97.70;;;;;;5063385;28;20200;-60
2022/08/13 03:48:48;;;;;;;0.50;0.50;;;19.30;98.40;;;;;;5066677;28;20208;-60
2022/08/13 03:51:16;;;;;;;0.50;0.50;;;19.20;98.30;;;;;;5066334;28;20224;-59
2022/08/13 03:53:45;;;;;;;0.55;0.55;;;19.10;98.40;;;;;;5065505;28;20223;-59
2022/08/13 03:56:14;;;;;;;0.60;0.60;;;19.10;98.70;;;;;;5066755;28;20290;-59
2022/08/13 03:58:44;;;;;;;0.75;0.75;;;19.10;98.90;;;;;;5065444;28;20287;-59
2022/08/13 04:01:11;;;;;;;0.75;0.75;;;19.10;99.20;;;;;;5065796;28;20207;-59
2022/08/13 04:03:40;;;;;;;0.50;0.50;;;19.10;99.20;;;;;;5062155;28;20434;-59
2022/08/13 04:06:09;;;;;;;1.23;0.65;;;19.00;99.40;;;;;;5067026;28;20234;-59
2022/08/13 04:08:38;;;;;;;0.73;0.73;;;19.10;99.60;;;;;;5065298;28;20235;-59
2022/08/13 04:11:11;;;;;;;0.43;0.43;;;19.00;99.90;;;;;;5066301;28;20199;-59
2022/08/13 04:13:39;;;;;;;0.70;0.70;;;19.00;99.90;;;;;;5064458;28;20220;-59
2022/08/13 04:16:07;;;;;;;0.50;0.50;;;19.00;99.90;;;;;;5065816;28;20207;-60
2022/08/13 04:18:35;;;;;;;0.55;0.35;;;18.90;99.90;;;;;;5057539;28;20204;-61
2022/08/13 04:21:04;;;;;;;0.70;0.70;;;18.90;99.90;;;;;;5065860;28;20218;-58
2022/08/13 04:23:33;;;;;;;0.50;0.50;;;19.00;99.90;;;;;;5057051;28;20220;-59
2022/08/13 04:26:00;;;;;;;0.57;0.57;;;19.00;99.90;;;;;;5066667;28;20258;-58
2022/08/13 04:28:29;;;;;;;0.77;0.73;;;19.00;99.90;;;;;;5062816;28;20578;-58
2022/08/13 04:30:56;;;;;;;0.47;0.47;;;19.00;99.90;;;;;;5068328;28;20600;-58
2022/08/13 04:33:25;;;;;;;0.60;0.60;;;19.00;99.90;;;;;;5051758;28;20322;-58
2022/08/13 04:35:52;;;;;;;0.70;0.70;;;19.10;99.90;;;;;;5047424;28;20613;-58
2022/08/13 04:38:19;;;;;;;0.30;0.30;;;19.10;99.90;;;;;;5054217;28;20629;-58
2022/08/13 04:40:47;;;;;;;0.80;0.80;;;19.10;99.90;;;;;;5060511;28;20204;-58
2022/08/13 04:43:15;;;;;;;0.95;0.90;;;19.10;99.90;;;;;;5058085;28;20238;-58
2022/08/13 04:45:43;;;;;;;0.60;0.60;;;19.00;99.90;;;;;;5063963;28;20196;-59
2022/08/13 04:48:13;;;;;;;1.02;1.02;;;19.00;99.90;;;;;;5066240;28;20208;-58
2022/08/13 04:50:41;;;;;;;0.60;0.60;;;19.00;99.90;;;;;;5062593;28;20609;-58
2022/08/13 04:53:10;;;;;;;0.70;0.70;;;19.10;99.90;;;;;;5055059;28;20224;-58
2022/08/13 04:55:38;;;;;;;0.60;0.60;;;19.20;99.90;;;;;;5066135;28;20209;-58
2022/08/13 04:58:08;;;;;;;1.70;0.57;;;19.20;99.90;;;;;;5065204;28;20290;-59
2022/08/13 05:00:37;;;;;;;1.10;0.60;;;19.20;99.90;;;;;;5057932;28;20198;-58
2022/08/13 05:03:14;;;;;;;1.13;0.55;;;19.20;99.90;;;;;;5054740;28;20224;-58
2022/08/13 05:05:43;;;;;;;0.60;0.60;;;19.20;99.90;;;;;;5057886;28;20234;-58
2022/08/13 05:08:10;;;;;;;0.70;0.70;;;19.20;99.90;;;;;;5063361;28;20213;-58
2022/08/13 05:10:38;;;;;;;0.60;0.60;;;19.20;99.90;;;;;;5063552;28;20200;-58
2022/08/13 05:13:07;;;;;;;0.60;0.60;;;19.20;99.90;;;;;;5062837;28;20220;-58
2022/08/13 05:15:39;;;;;;;0.70;0.70;;;19.20;99.90;;;;;;5067983;28;20223;-59
2022/08/13 05:18:06;;;;;;;0.50;0.50;;;19.10;99.90;;;;;;5062150;28;20212;-59
2022/08/13 05:20:39;;;;;;;1.45;0.65;;;19.20;99.90;;;;;;5068948;28;20313;-60
2022/08/13 05:23:10;;;;;;;0.43;0.43;;;19.30;99.90;;;;;;5052466;28;20220;-60
2022/08/13 05:25:38;;;;;;;0.70;0.70;;;19.50;99.90;;;;;;5057979;28;20200;-59
2022/08/13 05:28:05;;;;;;;1.08;0.65;;;19.70;99.90;;;;;;5058450;28;20298;-59
2022/08/13 05:30:34;;;;;;;0.70;0.70;;;19.80;99.90;;;;;;5053341;28;20258;-58
2022/08/13 05:33:02;;;;;;;0.50;0.50;;;19.90;99.90;;;;;;5058991;28;20228;-59
2022/08/13 05:35:29;;;;;;;0.70;0.70;;;20.00;99.90;;;;;;5053723;28;20215;-59
2022/08/13 05:37:58;;;;;;;0.70;0.70;;;20.10;99.90;;;;;;5054862;28;20204;-59
2022/08/13 05:40:26;;;;;;;2.95;0.80;;;20.30;99.90;;;;;;5060947;28;20205;-58
2022/08/13 05:42:56;;;;;;;0.55;0.55;;;20.30;99.90;;;;;;5063412;28;20688;-58
2022/08/13 05:45:23;;;;;;;0.77;0.77;;;20.60;99.90;;;;;;5064061;28;20218;-59
2022/08/13 05:47:50;;;;;;;0.93;0.90;;;20.90;99.90;;;;;;5040142;28;20230;-60
2022/08/13 05:50:17;;;;;;;2.97;1.00;;;21.30;99.90;;;;;;5056634;28;20258;-60
2022/08/13 05:52:44;;;;;;;5.03;1.38;;;21.60;99.90;;;;;;5057877;28;20234;-59
2022/08/13 05:55:14;;;;;;;0.93;0.93;;;21.90;99.90;;;;;;5044306;28;20227;-62
2022/08/13 05:57:44;;;;;;;0.80;0.80;;;22.10;99.90;;;;;;5052130;28;20238;-60
2022/08/13 06:05:40;;;;;;;2.13;0.95;;;21.90;99.90;;;;;;5054172;28;20210;-61
2022/08/13 06:08:08;;;;;;;0.60;0.60;;;22.20;99.90;;;;;;5056368;28;20537;-60
2022/08/13 06:10:36;;;;;;;0.60;0.60;;;22.10;99.90;;;;;;5066878;28;20244;-62
2022/08/13 06:13:03;;;;;;;0.70;0.70;;;21.90;99.90;;;;;;5060377;28;20627;-60
2022/08/13 06:15:31;;;;;;;0.65;0.65;;;21.80;99.90;;;;;;5064535;28;20317;-61
2022/08/13 06:17:59;;;;;;;0.75;0.75;;;22.00;99.90;;;;;;5064416;28;20200;-61
2022/08/13 06:20:27;;;;;;;1.10;1.00;;;22.20;99.90;;;;;;5063516;28;20550;-61
2022/08/13 06:22:57;;;;;;;1.25;0.73;;;22.40;99.90;;;;;;5060072;28;20220;-61
2022/08/13 06:25:24;;;;;;;1.00;1.00;;;22.60;99.90;;;;;;5066464;28;20214;-61
2022/08/13 06:27:54;;;;;;;0.90;0.90;;;22.80;99.80;;;;;;5052693;28;20214;-61
2022/08/13 06:30:21;;;;;;;1.08;0.98;;;22.90;99.70;;;;;;5062318;28;20600;-61
2022/08/13 06:32:49;;;;;;;0.85;0.85;;;23.00;99.60;;;;;;5063792;28;20537;-61
2022/08/13 06:35:17;;;;;;;0.85;0.85;;;23.10;99.60;;;;;;5065514;28;20649;-61
2022/08/13 06:37:43;;;;;;;0.93;0.90;;;23.10;99.30;;;;;;5060769;28;20209;-61
2022/08/13 06:40:14;;;;;;;0.82;0.82;;;22.90;99.60;;;;;;5084887;22;20209;-61
2022/08/13 06:42:44;;;;;;;1.92;1.30;;;23.10;99.80;;;;;;5079760;28;20263;-66
2022/08/13 06:45:14;;;;;;;0.80;0.80;;;23.20;99.90;;;;;;5083773;28;20306;-65
2022/08/13 06:47:41;;;;;;;1.73;1.00;;;23.20;99.90;;;;;;5084491;28;20253;-65
2022/08/13 06:50:11;;;;;;;0.82;0.82;;;23.10;99.80;;;;;;5086586;28;20202;-66
2022/08/13 06:52:39;;;;;;;1.05;0.90;;;23.20;99.90;;;;;;5086043;28;20207;-66
2022/08/13 06:55:08;;;;;;;2.33;1.00;;;23.20;99.90;;;;;;5076428;28;20735;-66
2022/08/13 06:57:37;;;;;;;1.10;1.08;;;23.20;99.80;;;;;;5077516;28;20275;-64
2022/08/13 07:00:07;;;;;;;1.15;0.95;;;23.20;99.90;;;;;;5076209;28;20349;-65
2022/08/13 07:02:36;;;;;;;1.40;1.30;;;23.30;99.90;;;;;;5080550;28;20210;-66
2022/08/13 07:05:04;;;;;;;1.00;1.00;;;23.30;99.80;;;;;;5078506;28;20214;-65
2022/08/13 07:07:32;;;;;;;1.10;1.00;;;23.10;99.90;;;;;;5069863;28;20196;-66
2022/08/13 07:10:00;;;;;;;1.05;1.05;;;23.10;99.90;;;;;;5075986;28;20208;-65
2022/08/13 07:12:27;;;;;;;1.67;0.90;;;23.00;99.90;;;;;;5064181;28;20223;-65
2022/08/13 07:14:54;;;;;;;0.88;0.88;;;23.00;99.90;;;;;;5068804;28;20328;-65
2022/08/13 07:17:23;;;;;;;1.80;1.10;;;23.00;99.90;;;;;;5065484;28;20253;-65
2022/08/13 07:19:51;;;;;;;0.93;0.93;;;23.10;99.90;;;;;;5067934;28;20273;-65
2022/08/13 07:22:18;;;;;;;1.05;1.02;;;23.20;99.90;;;;;;5081479;28;20227;-66
2022/08/13 07:24:50;;;;;;;1.15;1.10;;;23.30;99.90;;;;;;5069411;28;20199;-66
2022/08/13 07:27:18;;;;;;;1.95;1.10;;;23.30;99.90;;;;;;5068742;28;20195;-65
2022/08/13 07:29:49;;;;;;;1.15;1.10;;;23.60;99.90;;;;;;5076769;28;20198;-65
2022/08/13 07:32:16;;;;;;;1.52;1.20;;;23.70;99.90;;;;;;5073834;28;20272;-67
2022/08/13 07:34:44;;;;;;;1.13;1.10;;;23.80;99.90;;;;;;5078770;28;20215;-67
2022/08/13 07:37:19;;;;;;;1.95;1.25;;;23.80;99.90;;;;;;5069762;28;20583;-68
2022/08/13 07:39:46;;;;;;;1.52;1.02;;;23.90;99.90;;;;;;5061585;28;20293;-66
2022/08/13 07:42:15;;;;;;;1.10;1.10;;;23.90;99.90;;;;;;5068931;28;20246;-67
2022/08/13 07:44:42;;;;;;;1.40;1.30;;;24.00;99.90;;;;;;5064640;28;20196;-67
2022/08/13 07:47:14;;;;;;;1.58;1.20;;;24.00;99.90;;;;;;5072918;28;20668;-67
2022/08/13 07:49:44;;;;;;;1.27;1.10;;;24.10;99.80;;;;;;5063964;28;20211;-65
2022/08/13 07:52:13;;;;;;;1.45;1.00;;;24.20;99.90;;;;;;5067051;28;20258;-67
2022/08/13 07:54:40;;;;;;;1.02;1.02;;;24.40;99.30;;;;;;5066655;28;20701;-67
2022/08/13 07:57:10;;;;;;;0.93;0.93;;;24.30;99.30;;;;;;5061939;28;20200;-66
2022/08/13 07:59:37;;;;;;;1.10;1.10;;;24.40;99.40;;;;;;5067111;28;20203;-66
2022/08/13 08:02:05;;;;;;;0.82;0.82;;;24.70;99.20;;;;;;5059849;28;20251;-66
2022/08/13 08:04:34;;;;;;;2.28;0.85;;;24.80;98.80;;;;;;5062598;28;20207;-66
2022/08/13 08:07:03;;;;;;;0.80;0.80;;;24.80;98.80;;;;;;5059892;28;20278;-67
2022/08/13 08:09:32;;;;;;;1.10;1.10;;;25.00;98.80;;;;;;5065383;28;20206;-67
2022/08/13 08:14:45;;;;;;;0.85;0.85;;;25.00;98.40;;;;;;5072793;28;20300;-65
2022/08/13 08:17:13;;;;;;;0.82;0.82;;;24.90;98.30;;;;;;5071664;28;20278;-64
2022/08/13 08:19:41;;;;;;;0.50;0.50;;;25.00;98.40;;;;;;5073058;28;20199;-67
2022/08/13 08:22:10;;;;;;;0.90;0.90;;;25.20;98.50;;;;;;5071916;28;20306;-65
2022/08/13 08:24:39;;;;;;;0.70;0.70;;;25.30;98.30;;;;;;5069655;28;20191;-65
2022/08/13 08:27:09;;;;;;;1.00;0.90;;;25.50;98.00;;;;;;5069586;28;20741;-68
2022/08/13 08:29:40;;;;;;;1.30;0.80;;;25.50;97.70;;;;;;5074403;28;20307;-68
2022/08/13 08:32:08;;;;;;;0.57;0.57;;;25.60;98.00;;;;;;5065119;28;20307;-65
2022/08/13 08:34:36;;;;;;;1.38;0.90;;;25.40;97.80;;;;;;5072478;28;20305;-66
2022/08/13 08:37:03;;;;;;;0.73;0.73;;;25.70;97.90;;;;;;5073747;28;20207;-66
2022/08/13 08:42:38;;;;;;;0.90;0.90;;;26.00;97.30;;;;;;5072190;28;20233;-66
2022/08/13 08:45:13;;;;;;;0.60;0.60;;;26.30;97.00;;;;;;5071332;28;20219;-65
2022/08/13 08:47:42;;;;;;;0.50;0.50;;;26.50;97.00;;;;;;5071904;28;20685;-67
2022/08/13 08:50:10;;;;;;;0.90;0.90;;;26.60;96.80;;;;;;5065819;28;20636;-67
2022/08/13 08:55:24;;;;;;;0.98;0.75;;;26.70;96.30;;;;;;5066065;28;20366;-67
2022/08/13 08:57:53;;;;;;;0.73;0.73;;;26.70;96.10;;;;;;5067795;28;20210;-67
2022/08/13 09:00:23;;;;;;;0.60;0.60;;;26.80;96.10;;;;;;5059714;28;20542;-67
2022/08/13 09:02:51;;;;;;;1.00;0.68;;;26.70;96.00;;;;;;5063534;28;20203;-66
2022/08/13 09:05:21;;;;;;;0.77;0.77;;;27.00;95.70;;;;;;5064165;28;20192;-67
2022/08/13 09:07:49;;;;;;;0.73;0.60;;;27.20;95.60;;;;;;5065545;28;20278;-67
2022/08/13 09:10:18;;;;;;;0.52;0.52;;;27.30;95.70;;;;;;5073244;28;20227;-65
2022/08/13 09:12:46;;;;;;;0.90;0.90;;;27.40;95.00;;;;;;5070322;28;20294;-66
2022/08/13 09:15:17;;;;;;;0.90;0.90;;;27.50;94.50;;;;;;5066582;28;20949;-66
2022/08/13 09:17:45;;;;;;;2.03;1.02;;;27.50;94.40;;;;;;5081953;28;20295;-66
2022/08/13 09:20:14;;;;;;;0.70;0.70;;;27.80;93.70;;;;;;5078958;28;20249;-66
2022/08/13 09:22:44;;;;;;;1.00;0.60;;;28.10;92.90;;;;;;5085011;28;20735;-66
2022/08/13 09:25:14;;;;;;;0.73;0.73;;;28.30;90.20;;;;;;5079429;28;20286;-66
2022/08/13 09:27:43;;;;;;;0.70;0.70;;;28.50;88.60;;;;;;5085655;28;20576;-67
2022/08/13 09:30:13;;;;;;;0.70;0.70;;;28.70;87.00;;;;;;5080489;28;20203;-66
2022/08/13 09:32:41;;;;;;;0.60;0.60;;;28.90;88.60;;;;;;5086474;28;20199;-66
2022/08/13 09:35:09;;;;;;;0.47;0.47;;;29.20;86.90;;;;;;5081502;28;20230;-65
2022/08/13 09:37:36;;;;;;;0.68;0.68;;;29.20;85.00;;;;;;5071184;28;20769;-67
2022/08/13 09:40:07;;;;;;;0.65;0.65;;;29.30;84.20;;;;;;5064579;28;20300;-67
2022/08/13 09:42:37;;;;;;;0.68;0.68;;;29.50;83.10;;;;;;5058693;28;20204;-67
2022/08/13 09:45:06;;;;;;;0.70;0.70;;;29.60;81.30;;;;;;5058602;28;20192;-67
2022/08/13 09:47:33;;;;;;;0.63;0.63;;;29.50;80.90;;;;;;5063304;28;20200;-65
2022/08/13 09:50:01;;;;;;;0.70;0.70;;;29.50;81.00;;;;;;5062197;28;20290;-69
2022/08/13 09:52:30;;;;;;;0.80;0.80;;;29.60;81.30;;;;;;5062141;28;20280;-66
2022/08/13 09:54:57;;;;;;;0.60;0.60;;;29.80;80.80;;;;;;5066683;28;20283;-66
2022/08/13 09:57:25;;;;;;;0.63;0.63;;;29.80;79.80;;;;;;5084912;28;20661;-68
2022/08/13 09:59:53;;;;;;;0.70;0.70;;;29.90;79.60;;;;;;5073577;28;20289;-68
2022/08/13 10:02:21;;;;;;;0.77;0.77;;;30.00;81.20;;;;;;5072878;28;20646;-67
2022/08/13 10:04:57;;;;;;;0.63;0.60;;;30.10;80.70;;;;;;5086943;28;20252;-68
2022/08/13 10:07:25;;;;;;;0.50;0.50;;;30.20;79.20;;;;;;5066097;28;20199;-68
2022/08/13 10:09:52;;;;;;;0.70;0.70;;;30.40;78.90;;;;;;5076396;28;20293;-68
2022/08/13 10:12:19;;;;;;;1.20;0.85;;;30.30;78.30;;;;;;5074312;28;20219;-67
2022/08/13 10:14:46;;;;;;;0.70;0.70;;;30.50;78.60;;;;;;5088104;28;20297;-67
2022/08/13 10:17:16;;;;;;;0.60;0.60;;;30.60;79.10;;;;;;5077335;28;20199;-69
2022/08/13 10:19:44;;;;;;;1.75;0.60;;;30.70;78.10;;;;;;5072804;28;20282;-67
2022/08/13 10:22:11;;;;;;;0.50;0.50;;;30.80;77.90;;;;;;5076690;28;20318;-68
2022/08/13 10:24:39;;;;;;;0.60;0.60;;;30.70;77.20;;;;;;5074595;28;20289;-66
2022/08/13 10:27:07;;;;;;;1.00;1.00;;;30.60;77.50;;;;;;5081178;28;20289;-68
2022/08/13 10:29:33;;;;;;;0.70;0.70;;;30.80;77.80;;;;;;5087054;28;20683;-67
2022/08/13 10:32:01;;;;;;;0.60;0.60;;;30.90;76.50;;;;;;5091344;28;20229;-68
2022/08/13 10:34:28;;;;;;;0.60;0.60;;;30.90;77.00;;;;;;5072258;28;20200;-66
2022/08/13 10:36:56;;;;;;;0.57;0.57;;;31.00;76.60;;;;;;5077213;28;20218;-68
2022/08/13 10:39:23;;;;;;;1.52;0.80;;;30.90;75.40;;;;;;5077510;28;20272;-67
2022/08/13 10:41:52;;;;;;;0.50;0.50;;;30.90;76.00;;;;;;5078494;28;20260;-67
2022/08/13 10:44:19;;;;;;;0.60;0.60;;;31.00;75.80;;;;;;5084818;28;20227;-68
2022/08/13 10:46:48;;;;;;;0.70;0.70;;;31.10;76.00;;;;;;5075582;28;20206;-68
2022/08/13 10:49:15;;;;;;;0.60;0.60;;;31.10;74.00;;;;;;5072990;28;20303;-68
2022/08/13 10:51:41;;;;;;;0.60;0.60;;;31.10;72.50;;;;;;5088056;28;20317;-68
2022/08/13 10:54:09;;;;;;;0.55;0.55;;;31.10;71.60;;;;;;5073995;28;20199;-67
2022/08/13 10:56:37;;;;;;;0.70;0.70;;;31.20;71.80;;;;;;5080984;28;20286;-67
2022/08/13 10:59:06;;;;;;;0.77;0.77;;;31.20;71.70;;;;;;5080333;28;20239;-69
2022/08/13 11:01:33;;;;;;;0.60;0.60;;;31.10;71.00;;;;;;5081135;28;20735;-66
2022/08/13 11:04:02;;;;;;;0.60;0.60;;;31.20;71.30;;;;;;5085484;28;20659;-68
2022/08/13 11:06:29;;;;;;;0.70;0.70;;;31.40;71.80;;;;;;5080849;28;20538;-67
2022/08/13 11:08:59;;;;;;;0.60;0.60;;;31.50;71.80;;;;;;5085675;28;20654;-67
2022/08/13 11:11:26;;;;;;;0.60;0.60;;;31.40;71.40;;;;;;5079634;28;20276;-67
2022/08/13 11:13:53;;;;;;;0.65;0.65;;;31.50;71.40;;;;;;5081871;28;20639;-67
2022/08/13 11:19:14;;;;;;;1.00;0.85;;;31.50;72.60;;;;;;5051872;28;20611;-68
2022/08/13 11:21:43;;;;;;;0.70;0.70;;;31.50;68.70;;;;;;5082200;28;20223;-68
2022/08/13 11:24:10;;;;;;;3.60;0.75;;;31.40;68.60;;;;;;5082646;28;20198;-67
2022/08/13 11:26:37;;;;;;;0.50;0.50;;;31.40;66.50;;;;;;5081319;28;20640;-67
2022/08/13 11:29:04;;;;;;;2.60;0.90;;;31.40;67.30;;;;;;5082967;28;20229;-68
2022/08/13 11:31:33;;;;;;;1.65;0.52;;;31.50;67.30;;;;;;5082584;28;20272;-68
2022/08/13 11:34:00;;;;;;;1.25;0.85;;;31.50;67.80;;;;;;5085377;28;20226;-67
2022/08/13 11:36:26;;;;;;;0.73;0.73;;;31.40;68.40;;;;;;5083707;28;20645;-67
2022/08/13 11:38:53;;;;;;;0.73;0.73;;;31.50;69.50;;;;;;5075910;28;20217;-69
2022/08/13 11:41:20;;;;;;;1.15;0.75;;;31.60;68.00;;;;;;5081732;28;20313;-66
2022/08/13 11:43:48;;;;;;;1.15;0.80;;;31.80;67.90;;;;;;5082953;28;20290;-69
2022/08/13 11:46:15;;;;;;;0.52;0.52;;;31.70;65.70;;;;;;5076874;28;20198;-68
2022/08/13 11:48:44;;;;;;;1.50;0.68;;;31.90;68.00;;;;;;5084207;28;20249;-67
2022/08/13 11:51:11;;;;;;;0.57;0.50;;;32.00;67.50;;;;;;5084526;28;20257;-66
2022/08/13 11:53:38;;;;;;;0.60;0.60;;;32.10;66.90;;;;;;5080508;28;20263;-66
2022/08/13 11:56:05;;;;;;;1.35;0.60;;;32.20;67.40;;;;;;5087473;28;20264;-67
2022/08/13 11:58:33;;;;;;;0.70;0.70;;;32.20;66.00;;;;;;5085489;28;20293;-66
2022/08/13 12:01:05;;;;;;;0.70;0.70;;;32.30;67.50;;;;;;5082602;28;20715;-68
2022/08/13 12:03:32;;;;;;;0.60;0.60;;;32.30;66.00;;;;;;5082333;28;20198;-67
2022/08/13 12:06:00;;;;;;;0.60;0.60;;;32.20;66.00;;;;;;5076273;28;20286;-68
2022/08/13 12:08:27;;;;;;;0.52;0.52;;;32.20;66.00;;;;;;5081470;28;20204;-69
2022/08/13 12:10:53;;;;;;;0.50;0.50;;;32.30;66.10;;;;;;5086078;28;20227;-68
2022/08/13 12:13:20;;;;;;;0.70;0.70;;;32.20;65.70;;;;;;5089793;28;20202;-67
2022/08/13 12:15:47;;;;;;;0.50;0.50;;;32.30;65.50;;;;;;5082191;28;20313;-67
2022/08/13 12:18:16;;;;;;;0.60;0.60;;;32.10;66.00;;;;;;5082498;28;20205;-67
2022/08/13 12:20:43;;;;;;;0.90;0.90;;;32.20;67.70;;;;;;5088493;28;20252;-68
2022/08/13 12:23:12;;;;;;;0.77;0.77;;;32.40;66.90;;;;;;5082350;28;20200;-68
2022/08/13 12:25:38;;;;;;;0.60;0.60;;;32.30;67.80;;;;;;5088639;28;20668;-66
2022/08/13 12:28:19;;;;;;;0.60;0.60;;;32.40;68.20;;;;;;5082543;28;20237;-68
2022/08/13 12:30:48;;;;;;;0.82;0.75;;;32.50;66.30;;;;;;5089386;28;20353;-69
2022/08/13 12:33:16;;;;;;;0.60;0.60;;;32.50;66.30;;;;;;5079782;28;20203;-67
2022/08/13 12:35:43;;;;;;;0.60;0.60;;;32.50;66.30;;;;;;5091166;28;20211;-66
2022/08/13 12:38:13;;;;;;;0.70;0.70;;;32.60;66.40;;;;;;5086406;28;20261;-67
2022/08/13 12:40:41;;;;;;;0.50;0.50;;;32.60;66.40;;;;;;5085875;28;20612;-67
2022/08/13 12:43:09;;;;;;;0.75;0.60;;;32.80;67.40;;;;;;5086765;28;20203;-68
2022/08/13 12:45:37;;;;;;;0.70;0.70;;;32.90;66.70;;;;;;5086352;28;20293;-67
2022/08/13 12:48:08;;;;;;;0.50;0.50;;;32.90;66.70;;;;;;5097041;28;20290;-68
2022/08/13 12:50:36;;;;;;;0.77;0.77;;;32.80;66.50;;;;;;5085110;28;20306;-67
2022/08/13 12:53:05;;;;;;;0.70;0.70;;;32.80;66.60;;;;;;5089988;28;20206;-67
2022/08/13 12:55:34;;;;;;;0.90;0.70;;;32.80;67.60;;;;;;5079354;28;20289;-67
2022/08/13 12:58:12;;;;;;;0.50;0.50;;;32.80;67.50;;;;;;5087710;28;20199;-70
2022/08/13 13:00:39;;;;;;;0.65;0.65;;;32.80;66.10;;;;;;5084969;28;20313;-68
2022/08/13 13:03:06;;;;;;;0.55;0.55;;;32.80;66.50;;;;;;5070148;28;20294;-67
2022/08/13 13:05:34;;;;;;;3.75;0.90;;;32.90;66.70;;;;;;5071597;28;20306;-67
2022/08/13 13:08:00;;;;;;;0.57;0.57;;;33.00;66.80;;;;;;5071869;28;20207;-67
2022/08/13 13:10:27;;;;;;;0.60;0.60;;;32.90;66.60;;;;;;5053924;28;20200;-67
2022/08/13 13:12:56;;;;;;;0.70;0.70;;;32.80;67.40;;;;;;5059051;28;20901;-66
2022/08/13 13:15:25;;;;;;;0.82;0.82;;;32.80;66.50;;;;;;5055026;28;20277;-67
2022/08/13 13:17:52;;;;;;;0.70;0.70;;;32.80;66.50;;;;;;5062737;28;20310;-68
2022/08/13 13:20:19;;;;;;;0.68;0.68;;;32.90;66.60;;;;;;5061619;28;20286;-67
2022/08/13 13:22:46;;;;;;;0.90;0.90;;;33.00;67.80;;;;;;5057386;28;20199;-67